Time;durP1;ratioP1;P1;durP2;ratioP2;P2;SDS_P1;SDS_P2;PMS_P1;PMS_P2;Temp;Humidity;BMP_temperature;BMP_pressure;BME280_temperature;BME280_humidity;BME280_pressure;Samples;Min_cycle;Max_cycle;Signal;HPM_P1;HPM_P2
2022/09/23 00:01:02;;;;;;;5.40;3.65;;;;;;;5.17;99.80;97601.75;5066507;28;20234;-65
2022/09/23 00:03:30;;;;;;;8.55;3.55;;;;;;;5.11;99.85;97597.22;5067637;28;20048;-64
2022/09/23 00:06:02;;;;;;;7.75;3.97;;;;;;;5.03;100.00;97592.91;5067159;28;20060;-65
2022/09/23 00:08:29;;;;;;;7.70;4.00;;;;;;;5.04;100.00;97597.22;5067888;28;20048;-64
2022/09/23 00:10:56;;;;;;;6.95;4.18;;;;;;;5.02;100.00;97600.13;5067458;28;20041;-65
2022/09/23 00:13:23;;;;;;;8.40;4.32;;;;;;;5.13;100.00;97595.16;5069156;28;20055;-65
2022/09/23 00:15:50;;;;;;;6.43;4.22;;;;;;;5.20;99.62;97596.78;5067891;28;20119;-64
2022/09/23 00:18:17;;;;;;;5.90;3.92;;;;;;;5.18;99.08;97589.97;5067460;28;20044;-64
2022/09/23 00:20:43;;;;;;;8.13;4.35;;;;;;;5.40;99.29;97587.81;5066248;28;20145;-64
2022/09/23 00:23:10;;;;;;;7.30;4.22;;;;;;;5.37;97.16;97582.03;5062222;28;20047;-65
2022/09/23 00:25:36;;;;;;;5.93;3.75;;;;;;;5.40;97.81;97592.38;5067422;28;20538;-63
2022/09/23 00:28:03;;;;;;;5.80;3.67;;;;;;;5.40;96.69;97587.00;5067756;28;20044;-63
2022/09/23 00:30:30;;;;;;;6.05;3.63;;;;;;;5.40;97.70;97578.94;5065499;28;20119;-65
2022/09/23 00:32:56;;;;;;;6.47;3.92;;;;;;;5.39;98.48;97585.34;5062797;28;20388;-64
2022/09/23 00:35:23;;;;;;;5.35;3.80;;;;;;;5.36;97.04;97581.22;5067467;28;20043;-64
2022/09/23 00:37:49;;;;;;;9.55;3.53;;;;;;;5.32;97.68;97580.00;5074832;28;20076;-66
2022/09/23 00:40:16;;;;;;;6.32;3.72;;;;;;;5.19;98.42;97589.75;5067341;28;20434;-65
2022/09/23 00:42:48;;;;;;;6.40;4.47;;;;;;;5.27;98.03;97585.19;5078654;28;20040;-63
2022/09/23 00:45:15;;;;;;;6.10;3.83;;;;;;;5.08;99.28;97579.66;5087385;28;20483;-65
2022/09/23 00:48:00;;;;;;;6.43;3.88;;;;;;;5.00;99.39;97574.53;5067006;28;20131;-65
2022/09/23 00:50:38;;;;;;;5.70;3.72;;;;;;;4.94;100.00;97582.41;5065492;28;20055;-64
2022/09/23 00:53:08;;;;;;;4.85;3.35;;;;;;;5.01;100.00;97578.88;5066547;28;20119;-64
2022/09/23 00:55:51;;;;;;;6.20;3.85;;;;;;;5.02;100.00;97573.28;5066107;28;20037;-64
2022/09/23 00:58:24;;;;;;;7.78;3.92;;;;;;;5.10;99.89;97572.25;5066747;28;20139;-64
2022/09/23 01:00:50;;;;;;;7.00;3.90;;;;;;;5.17;99.47;97572.22;5065708;28;20044;-64
2022/09/23 01:03:18;;;;;;;7.07;3.35;;;;;;;5.25;99.13;97566.63;5072118;28;20044;-63
2022/09/23 01:05:45;;;;;;;4.75;3.20;;;;;;;5.41;97.74;97567.16;5065999;28;20044;-64
2022/09/23 01:08:13;;;;;;;10.93;3.95;;;;;;;5.36;97.97;97561.59;5067108;28;20449;-64
2022/09/23 01:11:19;;;;;;;6.57;3.58;;;;;;;5.44;97.92;97553.31;5065813;28;20416;-66
2022/09/23 01:14:16;;;;;;;7.03;3.80;;;;;;;5.52;97.19;97557.59;5066470;28;20135;-63
2022/09/23 01:16:59;;;;;;;5.68;3.90;;;;;;;5.51;97.71;97558.63;5065434;28;20052;-66
2022/09/23 01:19:35;;;;;;;6.32;4.20;;;;;;;5.57;97.91;97555.91;5064312;28;20400;-64
2022/09/23 01:22:22;;;;;;;7.07;4.20;;;;;;;5.57;97.59;97553.22;5065413;28;20124;-64
2022/09/23 01:25:24;;;;;;;5.55;3.85;;;;;;;5.65;97.76;97554.03;5054321;28;20422;-64
2022/09/23 01:28:05;;;;;;;6.10;3.97;;;;;;;5.66;97.51;97550.28;5058692;28;20514;-66
2022/09/23 01:30:44;;;;;;;7.10;4.13;;;;;;;5.64;97.38;97547.00;5065550;28;20102;-64
2022/09/23 01:33:23;;;;;;;6.32;4.28;;;;;;;5.62;97.49;97546.38;5044681;28;20040;-65
2022/09/23 01:36:07;;;;;;;5.40;3.45;;;;;;;5.64;97.42;97549.69;5062504;28;20131;-63
2022/09/23 01:38:41;;;;;;;6.88;4.30;;;;;;;5.65;97.74;97545.97;5062820;28;20119;-64
2022/09/23 01:41:19;;;;;;;6.28;3.90;;;;;;;5.65;97.58;97549.50;5065291;28;20040;-63
2022/09/23 01:44:10;;;;;;;7.72;4.35;;;;;;;5.69;98.34;97545.34;5059388;28;20045;-64
2022/09/23 01:46:50;;;;;;;5.50;3.30;;;;;;;5.63;97.28;97540.00;5060079;28;20131;-64
2022/09/23 01:49:22;;;;;;;5.55;3.60;;;;;;;5.59;97.49;97542.28;5066089;28;20119;-66
2022/09/23 01:51:58;;;;;;;4.88;3.20;;;;;;;5.72;96.22;97536.00;5060553;28;20044;-64
2022/09/23 01:54:37;;;;;;;6.25;4.13;;;;;;;5.69;95.51;97536.44;5065889;28;20087;-64
2022/09/23 01:57:14;;;;;;;5.85;3.72;;;;;;;5.69;95.72;97536.44;5065621;28;20041;-64
2022/09/23 01:59:46;;;;;;;5.10;3.42;;;;;;;5.74;94.45;97528.53;5064947;28;20520;-63
2022/09/23 02:02:16;;;;;;;5.70;3.08;;;;;;;5.59;95.08;97528.84;5065185;28;20060;-66
2022/09/23 02:04:55;;;;;;;6.47;3.80;;;;;;;5.73;96.16;97522.38;5063850;28;20578;-64
2022/09/23 02:07:38;;;;;;;6.20;3.53;;;;;;;5.57;94.71;97525.56;5065343;28;20058;-66
2022/09/23 02:10:10;;;;;;;6.15;3.10;;;;;;;5.39;94.99;97527.09;5063377;28;20407;-65
2022/09/23 02:12:39;;;;;;;4.47;3.10;;;;;;;5.34;95.52;97524.22;5076026;28;20040;-64
2022/09/23 02:15:12;;;;;;;5.10;3.30;;;;;;;5.23;96.48;97524.91;5083962;28;20503;-63
2022/09/23 02:17:53;;;;;;;5.43;3.40;;;;;;;5.05;97.43;97521.06;5064764;28;20050;-64
2022/09/23 02:20:28;;;;;;;5.78;3.35;;;;;;;4.92;97.33;97521.94;5062706;28;20123;-63
2022/09/23 02:22:58;;;;;;;6.63;3.58;;;;;;;4.99;98.49;97521.91;5065090;28;20047;-65
2022/09/23 02:25:34;;;;;;;5.25;3.53;;;;;;;4.86;99.35;97528.16;5065174;28;20128;-63
2022/09/23 02:28:11;;;;;;;6.53;3.67;;;;;;;4.72;100.00;97524.69;5062336;28;20048;-64
2022/09/23 02:31:06;;;;;;;7.00;4.22;;;;;;;4.60;100.00;97527.19;5051158;28;20044;-64
2022/09/23 02:33:44;;;;;;;7.15;4.78;;;;;;;4.64;100.00;97525.72;5057033;28;20052;-63
2022/09/23 02:36:31;;;;;;;8.38;4.95;;;;;;;4.46;100.00;97521.81;5063070;28;20036;-64
2022/09/23 02:39:04;;;;;;;6.57;4.22;;;;;;;4.24;100.00;97527.41;5065573;28;20434;-66
2022/09/23 02:42:05;;;;;;;10.38;4.30;;;;;;;4.27;100.00;97527.00;5066515;28;20123;-64
2022/09/23 02:44:31;;;;;;;5.55;4.00;;;;;;;4.23;100.00;97522.25;5073712;28;20444;-64
2022/09/23 02:46:58;;;;;;;7.68;4.40;;;;;;;4.22;100.00;97516.09;5064926;28;20503;-64
2022/09/23 02:49:29;;;;;;;6.75;4.53;;;;;;;4.15;100.00;97517.94;5064869;28;20496;-64
2022/09/23 02:52:00;;;;;;;6.88;4.30;;;;;;;4.21;100.00;97516.28;5064429;28;20062;-64
2022/09/23 02:54:27;;;;;;;9.30;4.82;;;;;;;4.20;100.00;97511.97;5078642;28;20115;-65
2022/09/23 02:56:54;;;;;;;8.52;4.75;;;;;;;4.07;100.00;97513.63;5065206;28;20071;-64
2022/09/23 02:59:22;;;;;;;7.10;4.65;;;;;;;4.27;100.00;97508.25;5065085;28;20078;-64
2022/09/23 03:02:07;;;;;;;7.65;4.68;;;;;;;4.33;100.00;97503.91;5064523;28;20041;-65
2022/09/23 03:04:34;;;;;;;11.40;4.65;;;;;;;4.31;100.00;97505.97;5064633;28;20044;-65
2022/09/23 03:07:46;;;;;;;5.97;3.83;;;;;;;4.26;100.00;97501.25;5066846;28;20474;-65
2022/09/23 03:10:33;;;;;;;6.13;3.85;;;;;;;4.24;100.00;97507.84;4991190;28;20052;-64
2022/09/23 03:13:28;;;;;;;8.63;4.32;;;;;;;4.26;100.00;97505.75;5078372;28;20146;-64
2022/09/23 03:16:06;;;;;;;6.43;4.07;;;;;;;4.30;100.00;97501.63;5083572;28;20607;-64
2022/09/23 03:18:50;;;;;;;6.60;3.70;;;;;;;4.24;100.00;97499.81;5061804;28;20067;-64
2022/09/23 03:21:27;;;;;;;5.63;3.80;;;;;;;4.29;100.00;97495.47;5056384;28;20045;-64
2022/09/23 03:23:59;;;;;;;7.28;4.47;;;;;;;4.25;100.00;97501.44;5069213;28;20526;-63
2022/09/23 03:26:35;;;;;;;7.63;4.20;;;;;;;4.26;100.00;97497.72;5068039;28;20054;-64
2022/09/23 03:29:08;;;;;;;8.70;4.32;;;;;;;4.27;100.00;97496.69;5068969;28;20040;-64
2022/09/23 03:31:38;;;;;;;7.47;4.47;;;;;;;4.46;100.00;97494.19;5067610;28;20121;-67
2022/09/23 03:34:13;;;;;;;6.22;4.10;;;;;;;4.22;100.00;97494.66;5075614;28;20048;-64
2022/09/23 03:36:52;;;;;;;7.45;4.45;;;;;;;4.06;100.00;97495.06;5067941;28;20048;-64
2022/09/23 03:39:57;;;;;;;7.20;4.90;;;;;;;4.09;100.00;97497.34;5068681;28;20312;-66
2022/09/23 03:42:28;;;;;;;7.68;4.35;;;;;;;4.13;100.00;97498.56;5031292;28;20136;-64
2022/09/23 03:44:56;;;;;;;7.05;4.03;;;;;;;4.06;100.00;97492.38;5056431;28;20128;-65
2022/09/23 03:47:27;;;;;;;6.40;4.50;;;;;;;4.05;100.00;97491.56;5067055;28;20120;-63
2022/09/23 03:49:55;;;;;;;9.30;5.10;;;;;;;4.37;100.00;97486.38;5068076;28;20051;-65
2022/09/23 03:52:23;;;;;;;6.47;4.53;;;;;;;4.29;100.00;97483.91;5067218;28;20045;-66
2022/09/23 03:54:50;;;;;;;6.60;4.35;;;;;;;4.05;100.00;97485.38;5049835;28;20367;-65
2022/09/23 03:57:19;;;;;;;7.25;4.32;;;;;;;3.94;100.00;97481.47;5067158;28;20040;-65
2022/09/23 03:59:45;;;;;;;6.35;3.90;;;;;;;3.97;100.00;97486.41;5076007;28;20485;-64
2022/09/23 04:02:11;;;;;;;11.65;6.32;;;;;;;3.86;100.00;97475.28;5067075;28;20039;-65
2022/09/23 04:04:39;;;;;;;10.73;5.35;;;;;;;3.79;100.00;97471.78;5067799;28;20271;-64
2022/09/23 04:07:06;;;;;;;7.13;4.43;;;;;;;3.79;100.00;97479.00;5066708;28;20044;-65
2022/09/23 04:09:34;;;;;;;5.53;3.83;;;;;;;3.71;100.00;97475.47;5066799;28;20512;-65
2022/09/23 04:12:00;;;;;;;7.10;4.97;;;;;;;3.78;100.00;97472.81;5072924;28;20059;-63
2022/09/23 04:14:27;;;;;;;7.60;4.90;;;;;;;3.93;100.00;97474.44;5077204;28;20055;-65
2022/09/23 04:16:53;;;;;;;9.55;4.38;;;;;;;3.60;100.00;97468.88;5066378;28;20041;-65
2022/09/23 04:19:20;;;;;;;7.13;4.57;;;;;;;3.58;100.00;97478.97;5061417;28;20148;-66
2022/09/23 04:21:47;;;;;;;6.57;4.13;;;;;;;3.68;100.00;97467.84;5067125;28;20060;-64
2022/09/23 04:24:14;;;;;;;7.38;4.78;;;;;;;3.87;100.00;97465.41;5075233;28;20434;-65
2022/09/23 04:26:41;;;;;;;7.40;4.80;;;;;;;4.12;100.00;97467.44;5067148;28;20479;-66
2022/09/23 04:29:09;;;;;;;8.57;4.82;;;;;;;3.97;100.00;97460.44;5067738;28;20076;-63
2022/09/23 04:31:35;;;;;;;7.55;3.92;;;;;;;4.08;100.00;97469.72;5065816;28;20029;-63
2022/09/23 04:34:02;;;;;;;8.82;4.47;;;;;;;4.03;100.00;97462.28;5064169;28;20514;-63
2022/09/23 04:36:29;;;;;;;7.13;4.55;;;;;;;3.94;100.00;97460.03;5065053;28;20139;-65
2022/09/23 04:38:55;;;;;;;6.90;4.03;;;;;;;3.83;100.00;97456.94;5067112;28;20044;-65
2022/09/23 04:41:22;;;;;;;6.18;4.40;;;;;;;3.82;100.00;97462.50;5067913;28;20484;-64
2022/09/23 04:43:48;;;;;;;9.75;5.30;;;;;;;4.09;100.00;97463.31;5078472;28;20051;-64
2022/09/23 04:46:15;;;;;;;6.13;4.45;;;;;;;4.01;100.00;97461.69;5066863;28;20119;-65
2022/09/23 04:48:42;;;;;;;6.65;4.60;;;;;;;4.00;100.00;97461.88;5072299;28;20127;-64
2022/09/23 04:51:14;;;;;;;7.45;4.60;;;;;;;4.01;100.00;97464.34;5065743;28;20045;-63
2022/09/23 04:53:42;;;;;;;8.00;3.95;;;;;;;3.83;100.00;97464.97;5070930;28;20127;-64
2022/09/23 04:56:12;;;;;;;7.00;4.75;;;;;;;3.71;100.00;97466.63;5065485;28;20051;-65
2022/09/23 04:58:39;;;;;;;8.68;4.50;;;;;;;3.70;100.00;97465.81;5068599;28;20045;-64
2022/09/23 05:01:13;;;;;;;7.95;4.25;;;;;;;3.75;100.00;97465.19;5073926;28;20044;-65
2022/09/23 05:03:41;;;;;;;8.70;4.25;;;;;;;3.78;100.00;97462.09;5059709;28;20045;-65
2022/09/23 05:06:09;;;;;;;9.02;4.63;;;;;;;3.86;100.00;97469.09;5062559;28;20052;-65
2022/09/23 05:08:36;;;;;;;9.10;4.75;;;;;;;3.97;100.00;97476.50;5057185;28;20121;-63
2022/09/23 05:11:04;;;;;;;5.68;4.30;;;;;;;4.05;100.00;97477.34;5069897;28;20041;-64
2022/09/23 05:13:31;;;;;;;8.02;4.63;;;;;;;4.11;100.00;97476.50;5063992;28;20119;-66
2022/09/23 05:16:03;;;;;;;6.90;5.00;;;;;;;4.25;100.00;97472.78;5064837;28;20060;-65
2022/09/23 05:18:31;;;;;;;10.35;4.90;;;;;;;4.33;100.00;97478.94;5061207;28;20094;-64
2022/09/23 05:20:58;;;;;;;10.90;5.15;;;;;;;4.58;100.00;97481.78;5064829;28;20123;-63
2022/09/23 05:23:26;;;;;;;10.27;4.35;;;;;;;4.62;100.00;97483.03;5075334;28;20094;-64
2022/09/23 05:26:01;;;;;;;7.43;4.07;;;;;;;4.63;98.99;97476.63;5065201;28;20040;-64
2022/09/23 05:28:31;;;;;;;7.28;4.03;;;;;;;4.80;99.22;97476.97;5062683;28;20562;-64
2022/09/23 05:31:18;;;;;;;6.35;4.32;;;;;;;4.80;98.73;97468.91;5066130;28;20054;-64
2022/09/23 05:33:50;;;;;;;7.35;4.70;;;;;;;4.88;98.53;97469.72;5063022;28;20040;-63
2022/09/23 05:36:19;;;;;;;6.55;4.18;;;;;;;4.96;98.73;97466.78;5066551;28;20040;-64
2022/09/23 05:38:48;;;;;;;8.32;4.72;;;;;;;4.98;98.80;97478.16;5065269;28;20048;-64
2022/09/23 05:41:15;;;;;;;8.43;4.63;;;;;;;5.05;98.69;97473.56;5075892;28;20479;-63
2022/09/23 05:43:41;;;;;;;7.22;4.80;;;;;;;5.23;97.89;97469.34;5070764;28;20048;-64
2022/09/23 05:46:34;;;;;;;6.90;4.65;;;;;;;5.44;96.69;97465.50;5064994;28;20055;-64
2022/09/23 05:49:02;;;;;;;8.13;4.60;;;;;;;5.57;95.99;97463.78;5075032;28;20063;-62
2022/09/23 05:51:31;;;;;;;6.53;4.32;;;;;;;5.72;95.00;97466.16;5062652;28;20040;-64
2022/09/23 05:53:59;;;;;;;7.60;4.07;;;;;;;5.88;94.04;97469.31;5073463;28;20076;-64
2022/09/23 05:56:26;;;;;;;12.15;4.53;;;;;;;5.95;93.44;97464.72;5083113;28;20050;-64
2022/09/23 05:58:56;;;;;;;5.70;4.07;;;;;;;6.09;92.81;97466.28;5062521;28;20534;-63
2022/09/23 06:01:25;;;;;;;9.93;5.50;;;;;;;6.28;91.52;97468.19;5064657;28;20203;-63
2022/09/23 06:03:55;;;;;;;8.63;4.93;;;;;;;6.40;91.14;97466.41;5065168;28;20391;-63
2022/09/23 06:06:27;;;;;;;7.00;4.55;;;;;;;6.53;90.80;97465.47;5065720;28;20495;-64
2022/09/23 06:08:54;;;;;;;5.75;4.05;;;;;;;6.62;89.99;97458.75;5064431;28;20098;-64
2022/09/23 06:11:20;;;;;;;6.50;3.95;;;;;;;6.80;88.72;97459.78;5066959;28;20048;-64
2022/09/23 06:13:48;;;;;;;5.45;3.90;;;;;;;6.91;88.26;97466.28;5069786;28;20039;-64
2022/09/23 06:16:15;;;;;;;5.57;3.47;;;;;;;7.01;87.48;97461.16;5070006;28;20528;-64
2022/09/23 06:18:44;;;;;;;6.22;3.47;;;;;;;7.16;87.00;97459.97;5067714;28;20036;-64
2022/09/23 06:21:15;;;;;;;6.07;3.83;;;;;;;7.27;86.43;97461.06;5083269;28;20439;-64
2022/09/23 06:23:42;;;;;;;4.85;3.08;;;;;;;7.37;86.21;97463.22;5067082;28;20048;-64
2022/09/23 06:26:11;;;;;;;5.97;3.10;;;;;;;7.46;85.33;97456.44;5063366;28;20048;-63
2022/09/23 06:28:40;;;;;;;7.50;3.50;;;;;;;7.47;85.23;97452.69;5063301;28;20048;-64
2022/09/23 06:31:12;;;;;;;8.48;4.18;;;;;;;7.48;84.19;97448.94;5077601;28;20131;-63
2022/09/23 06:33:44;;;;;;;6.43;3.95;;;;;;;7.55;84.65;97449.66;5081526;28;20376;-62
2022/09/23 06:36:12;;;;;;;7.07;3.43;;;;;;;7.66;84.95;97442.66;5070653;28;20071;-64
2022/09/23 06:38:49;;;;;;;7.43;4.82;;;;;;;7.75;83.77;97445.84;5059074;28;20331;-64
2022/09/23 06:41:16;;;;;;;6.60;3.78;;;;;;;7.90;83.38;97447.28;5067470;28;20262;-64
2022/09/23 06:43:43;;;;;;;5.53;4.03;;;;;;;7.96;82.42;97445.53;5078042;28;20040;-64
2022/09/23 06:46:14;;;;;;;6.78;4.40;;;;;;;8.07;82.35;97456.31;5065112;28;20051;-64
2022/09/23 06:48:44;;;;;;;7.30;3.85;;;;;;;8.22;81.79;97448.81;5065156;28;20400;-64
2022/09/23 06:51:17;;;;;;;5.10;3.25;;;;;;;8.34;80.96;97452.34;5064274;28;20045;-63
2022/09/23 06:53:46;;;;;;;7.78;3.88;;;;;;;8.47;80.55;97462.03;5065114;28;20048;-62
2022/09/23 06:56:13;;;;;;;7.05;3.22;;;;;;;8.63;79.99;97448.94;5066317;28;20268;-64
2022/09/23 06:58:40;;;;;;;4.78;3.00;;;;;;;8.80;79.25;97457.09;5065227;28;20127;-63
2022/09/23 07:01:09;;;;;;;5.88;3.58;;;;;;;8.95;78.34;97454.72;5063905;28;20497;-65
2022/09/23 07:03:36;;;;;;;7.00;3.08;;;;;;;9.01;78.31;97452.94;5066086;28;20120;-65
2022/09/23 07:06:03;;;;;;;6.68;3.55;;;;;;;9.11;77.22;97455.03;5063306;28;20522;-64
2022/09/23 07:08:32;;;;;;;7.60;2.97;;;;;;;9.26;77.84;97445.56;5068714;28;20585;-64
2022/09/23 07:11:02;;;;;;;4.43;2.78;;;;;;;9.41;79.11;97462.06;5085288;28;20127;-63
2022/09/23 07:13:29;;;;;;;4.53;2.95;;;;;;;9.53;76.75;97461.19;5083129;28;20052;-63
2022/09/23 07:15:57;;;;;;;3.65;2.40;;;;;;;9.64;76.29;97454.91;5085473;28;20060;-64
2022/09/23 07:18:25;;;;;;;5.57;3.10;;;;;;;9.83;75.69;97460.06;5079824;28;20563;-63
2022/09/23 07:20:52;;;;;;;4.45;2.70;;;;;;;9.95;74.37;97468.94;5065020;28;20239;-65
2022/09/23 07:23:19;;;;;;;5.78;2.95;;;;;;;10.00;73.55;97462.78;5063669;28;20283;-64
2022/09/23 07:25:49;;;;;;;4.38;2.63;;;;;;;10.13;73.42;97461.63;5064421;28;20119;-63
2022/09/23 07:28:15;;;;;;;4.82;2.60;;;;;;;10.19;73.71;97462.53;5065008;28;20044;-64
2022/09/23 07:30:42;;;;;;;4.47;2.70;;;;;;;10.24;72.12;97457.19;5063831;28;20053;-63
2022/09/23 07:33:24;;;;;;;7.70;4.05;;;;;;;10.32;72.33;97462.19;5064735;28;20037;-64
2022/09/23 07:35:57;;;;;;;5.85;2.70;;;;;;;10.37;72.81;97461.44;5064981;28;20303;-64
2022/09/23 07:38:28;;;;;;;4.55;2.50;;;;;;;10.40;72.09;97464.47;5064607;28;20044;-65
2022/09/23 07:41:07;;;;;;;4.78;2.65;;;;;;;10.49;72.21;97464.09;5064653;28;20051;-64
2022/09/23 07:43:34;;;;;;;4.78;2.78;;;;;;;10.55;72.01;97471.22;5064371;28;20120;-65
2022/09/23 07:46:05;;;;;;;6.63;2.97;;;;;;;10.59;71.94;97466.13;5065056;28;20049;-65
2022/09/23 07:48:33;;;;;;;5.93;2.80;;;;;;;10.69;71.93;97473.56;5064572;28;20608;-64
2022/09/23 07:51:06;;;;;;;5.15;2.75;;;;;;;10.77;72.22;97473.94;5064251;28;20577;-64
2022/09/23 07:53:33;;;;;;;6.50;3.72;;;;;;;10.82;71.08;97472.38;5064351;28;20036;-66
2022/09/23 07:55:59;;;;;;;11.43;5.13;;;;;;;10.85;71.15;97470.00;5067931;28;20462;-65
2022/09/23 07:58:25;;;;;;;5.70;3.70;;;;;;;10.96;71.33;97475.53;5066387;28;20558;-65
2022/09/23 08:00:52;;;;;;;6.45;4.00;;;;;;;11.05;70.57;97466.72;5066288;28;20147;-65
2022/09/23 08:03:19;;;;;;;4.85;3.17;;;;;;;11.16;70.42;97461.41;5067700;28;20491;-64
2022/09/23 08:05:46;;;;;;;7.05;2.95;;;;;;;11.06;70.07;97467.53;5068234;28;20653;-64
2022/09/23 08:08:13;;;;;;;4.80;2.80;;;;;;;11.06;70.14;97468.34;5067428;28;20068;-65
2022/09/23 08:10:39;;;;;;;4.57;3.20;;;;;;;11.17;71.15;97474.69;5067657;28;20051;-64
2022/09/23 08:13:05;;;;;;;4.28;2.55;;;;;;;11.18;71.57;97479.03;5082749;28;20230;-65
2022/09/23 08:15:32;;;;;;;7.43;2.55;;;;;;;11.33;70.35;97477.59;5087921;28;20086;-65
2022/09/23 08:17:59;;;;;;;5.47;2.90;;;;;;;11.41;71.66;97477.16;5076272;28;20040;-64
2022/09/23 08:20:46;;;;;;;3.63;2.40;;;;;;;11.51;70.17;97475.59;5076783;28;20310;-65
2022/09/23 08:23:15;;;;;;;4.80;2.55;;;;;;;11.53;70.28;97476.16;5071663;28;20049;-65
2022/09/23 08:25:44;;;;;;;5.10;2.40;;;;;;;11.59;70.02;97477.88;5084378;28;20126;-63
2022/09/23 08:28:15;;;;;;;4.35;2.30;;;;;;;11.67;70.52;97479.28;5065847;28;20315;-63
2022/09/23 08:30:43;;;;;;;9.85;5.45;;;;;;;11.73;70.74;97481.00;5069251;28;20490;-65
2022/09/23 08:33:10;;;;;;;8.23;3.35;;;;;;;11.79;69.59;97482.66;5078630;28;20105;-63
2022/09/23 08:35:37;;;;;;;8.50;5.72;;;;;;;11.84;70.45;97480.00;5065964;28;20492;-63
2022/09/23 08:38:04;;;;;;;4.93;2.83;;;;;;;11.93;70.42;97476.81;5065089;28;20143;-63
2022/09/23 08:40:38;;;;;;;5.88;2.97;;;;;;;12.00;70.29;97477.41;5061648;28;20052;-65
2022/09/23 08:43:06;;;;;;;5.80;3.10;;;;;;;12.12;69.23;97474.56;5068360;28;20047;-65
2022/09/23 08:45:34;;;;;;;4.22;2.53;;;;;;;12.22;69.48;97479.25;5061373;28;20515;-64
2022/09/23 08:48:09;;;;;;;8.25;3.22;;;;;;;12.27;68.89;97473.84;5065214;28;20045;-64
2022/09/23 08:50:53;;;;;;;4.13;2.20;;;;;;;12.38;68.78;97471.22;5064815;28;20790;-64
2022/09/23 08:53:31;;;;;;;4.22;2.33;;;;;;;12.52;70.05;97480.53;5066885;28;20029;-63
2022/09/23 08:56:01;;;;;;;5.20;3.05;;;;;;;12.56;68.36;97470.78;5064776;28;20040;-65
2022/09/23 08:58:46;;;;;;;4.63;2.50;;;;;;;12.65;68.17;97470.28;5065745;28;20048;-64
2022/09/23 09:01:33;;;;;;;6.10;2.38;;;;;;;12.66;67.66;97470.03;5064345;28;20044;-64
2022/09/23 09:04:03;;;;;;;5.80;2.38;;;;;;;12.84;67.68;97476.91;5078507;28;20044;-63
2022/09/23 09:06:40;;;;;;;4.10;2.05;;;;;;;13.00;67.07;97474.25;5065140;28;20478;-63
2022/09/23 09:09:23;;;;;;;5.28;2.58;;;;;;;13.00;66.94;97466.09;5061826;28;20204;-64
2022/09/23 09:11:56;;;;;;;5.68;2.45;;;;;;;13.14;67.09;97475.41;5064017;28;20579;-65
2022/09/23 09:14:25;;;;;;;3.78;1.80;;;;;;;13.20;66.81;97464.56;5067639;28;20040;-65
2022/09/23 09:16:57;;;;;;;2.80;1.63;;;;;;;13.31;66.99;97463.53;5067988;28;20132;-64
2022/09/23 09:19:51;;;;;;;5.00;2.15;;;;;;;13.45;66.54;97463.81;5069669;28;20055;-64
2022/09/23 09:22:43;;;;;;;6.37;2.10;;;;;;;13.52;65.91;97458.97;5071190;28;20048;-64
2022/09/23 09:25:43;;;;;;;6.65;2.25;;;;;;;13.67;64.85;97462.78;5073806;28;20334;-64
2022/09/23 09:28:41;;;;;;;6.07;2.42;;;;;;;13.70;64.58;97458.69;5054108;28;20044;-65
2022/09/23 09:31:10;;;;;;;5.72;2.05;;;;;;;13.79;64.09;97457.91;5059965;28;20070;-65
2022/09/23 09:33:56;;;;;;;5.15;2.10;;;;;;;13.84;64.93;97459.81;5078158;28;20130;-63
2022/09/23 09:36:49;;;;;;;4.53;2.00;;;;;;;13.87;64.13;97453.84;5064864;28;20040;-63
2022/09/23 09:39:16;;;;;;;3.78;2.13;;;;;;;13.88;64.21;97446.47;5042615;28;20060;-63
2022/09/23 09:41:47;;;;;;;4.93;2.75;;;;;;;13.82;63.91;97450.28;5075804;28;20148;-64
2022/09/23 09:44:33;;;;;;;6.15;3.33;;;;;;;13.89;64.64;97448.09;5076039;28;20356;-66
2022/09/23 09:47:15;;;;;;;5.13;2.20;;;;;;;13.99;64.62;97436.41;5060913;28;20052;-65
2022/09/23 09:49:52;;;;;;;5.93;2.17;;;;;;;14.15;63.81;97437.19;5059298;28;20127;-64
2022/09/23 09:52:28;;;;;;;6.63;2.30;;;;;;;14.23;63.21;97441.31;5061745;28;20048;-63
2022/09/23 09:55:21;;;;;;;5.00;2.05;;;;;;;14.37;62.72;97436.13;5060575;28;20337;-65
2022/09/23 09:58:00;;;;;;;4.03;2.08;;;;;;;14.49;63.07;97430.34;5057771;28;20051;-64
2022/09/23 10:00:26;;;;;;;4.95;2.33;;;;;;;14.56;63.33;97430.91;5078455;28;20541;-65
2022/09/23 10:03:02;;;;;;;6.35;2.25;;;;;;;14.65;62.98;97429.22;5063611;28;20045;-63
2022/09/23 10:05:31;;;;;;;4.43;2.13;;;;;;;14.68;61.31;97425.13;5059898;28;20340;-63
2022/09/23 10:08:17;;;;;;;11.07;2.50;;;;;;;14.70;61.12;97429.22;5063381;28;20621;-62
2022/09/23 10:11:11;;;;;;;4.20;2.45;;;;;;;14.66;60.86;97433.56;5070967;28;20673;-62
2022/09/23 10:13:38;;;;;;;4.30;2.15;;;;;;;14.75;61.18;97428.38;5070668;28;20052;-63
2022/09/23 10:16:05;;;;;;;5.47;1.90;;;;;;;14.88;61.74;97428.88;5079550;28;20043;-63
2022/09/23 10:18:37;;;;;;;3.97;2.25;;;;;;;14.98;61.12;97428.03;5074864;28;20143;-63
2022/09/23 10:21:14;;;;;;;4.30;1.90;;;;;;;15.03;60.87;97430.72;5077007;28;20485;-63
2022/09/23 10:23:56;;;;;;;4.32;2.17;;;;;;;15.14;61.74;97423.34;5064903;28;20453;-61
2022/09/23 10:26:31;;;;;;;4.43;2.30;;;;;;;15.20;60.78;97419.47;5067968;28;20262;-63
2022/09/23 10:29:01;;;;;;;7.32;2.08;;;;;;;15.26;61.92;97409.38;5067587;28;20144;-64
2022/09/23 10:31:33;;;;;;;4.38;2.05;;;;;;;15.37;61.74;97408.19;5063026;28;20044;-64
2022/09/23 10:34:19;;;;;;;;;;;;;;;15.41;63.05;97411.97;5064057;28;20043;-63
2022/09/23 10:36:54;;;;;;;7.57;2.30;;;;;;;15.31;63.26;97407.44;5069622;28;19920;-63
2022/09/23 10:48:18;;;;;;;5.18;2.33;;;;;;;15.56;62.45;97405.59;5059290;28;20048;-62
2022/09/23 10:50:51;;;;;;;4.60;2.22;;;;;;;15.61;62.29;97402.03;5066773;28;20546;-63
2022/09/23 10:53:29;;;;;;;4.30;2.20;;;;;;;15.67;61.94;97402.81;5064764;28;20041;-62
2022/09/23 10:56:13;;;;;;;7.95;2.40;;;;;;;15.76;61.27;97403.00;5050237;28;20058;-62
2022/09/23 10:59:02;;;;;;;7.63;2.80;;;;;;;15.79;60.96;97403.28;5077128;28;20054;-63
2022/09/23 11:01:47;;;;;;;3.75;2.38;;;;;;;15.84;60.67;97389.56;5063663;28;20418;-63
2022/09/23 11:04:24;;;;;;;5.03;2.35;;;;;;;15.87;61.60;97393.63;5071425;28;20051;-63
2022/09/23 11:07:17;;;;;;;5.50;2.63;;;;;;;15.93;60.53;97387.06;5080560;28;20055;-63
2022/09/23 11:10:04;;;;;;;7.75;2.78;;;;;;;15.99;61.57;97383.19;5057249;28;20061;-64
2022/09/23 11:12:53;;;;;;;6.28;3.72;;;;;;;16.08;59.04;97385.31;5069759;28;20045;-63
2022/09/23 11:15:43;;;;;;;6.80;3.35;;;;;;;15.94;59.00;97379.66;5068454;28;20438;-63
2022/09/23 11:18:40;;;;;;;5.93;2.55;;;;;;;15.91;58.63;97382.94;5057917;28;20173;-63
2022/09/23 11:21:35;;;;;;;4.88;2.22;;;;;;;15.99;59.55;97377.72;5062218;28;20496;-63
2022/09/23 11:24:21;;;;;;;5.95;2.75;;;;;;;16.16;59.08;97376.47;5063498;28;20123;-63
2022/09/23 11:27:06;;;;;;;4.50;2.90;;;;;;;16.25;58.16;97382.13;5069454;28;20132;-63
2022/09/23 11:29:55;;;;;;;5.03;2.83;;;;;;;16.44;58.13;97376.72;5061697;28;20052;-63
2022/09/23 11:32:21;;;;;;;8.50;3.30;;;;;;;16.38;58.21;97367.78;5077544;28;20442;-63
2022/09/23 11:35:18;;;;;;;8.55;3.20;;;;;;;16.42;58.28;97367.19;5068796;28;20036;-63
2022/09/23 11:37:52;;;;;;;8.35;2.75;;;;;;;16.53;58.25;97368.72;5072518;28;20076;-63
2022/09/23 11:40:28;;;;;;;5.30;3.25;;;;;;;16.55;57.76;97371.16;5086633;28;20048;-63
2022/09/23 11:43:03;;;;;;;5.20;2.70;;;;;;;16.28;57.47;97367.09;5071631;28;20056;-63
2022/09/23 11:45:34;;;;;;;7.35;3.33;;;;;;;16.32;58.08;97368.94;5066641;28;20048;-63
2022/09/23 11:48:20;;;;;;;6.10;3.10;;;;;;;16.36;57.98;97366.44;5065930;28;20050;-63
2022/09/23 11:50:55;;;;;;;4.90;3.05;;;;;;;16.52;57.14;97367.09;5061549;28;20341;-63
2022/09/23 11:53:43;;;;;;;5.00;2.60;;;;;;;16.48;57.38;97361.38;5071574;28;20131;-63
2022/09/23 11:56:26;;;;;;;5.65;2.65;;;;;;;16.42;58.09;97356.25;5060737;28;20115;-63
2022/09/23 11:59:30;;;;;;;7.70;3.10;;;;;;;16.39;56.83;97354.94;5070732;28;20043;-63
2022/09/23 12:02:23;;;;;;;5.78;3.40;;;;;;;16.50;56.47;97358.34;5070510;28;20080;-63
2022/09/23 12:05:09;;;;;;;5.32;3.03;;;;;;;16.59;56.31;97359.34;5073509;28;20284;-63
2022/09/23 12:07:55;;;;;;;5.00;3.20;;;;;;;16.36;55.96;97353.59;5074308;28;20591;-63
2022/09/23 12:10:35;;;;;;;6.25;2.90;;;;;;;16.67;55.17;97351.59;5086176;28;20055;-63
2022/09/23 12:13:31;;;;;;;5.18;2.75;;;;;;;16.77;54.96;97356.97;5084024;28;20131;-63
2022/09/23 12:16:24;;;;;;;4.65;2.88;;;;;;;16.93;54.20;97349.34;5056277;28;20511;-63
2022/09/23 12:19:41;;;;;;;7.40;3.25;;;;;;;17.06;53.94;97349.78;5066237;28;20526;-63